createdAt,value
2018-11-26T00:00:46.986Z,3.51
2018-11-26T00:03:15.990Z,3.59
2018-11-26T00:05:44.561Z,3.66
2018-11-26T00:08:13.736Z,3.72
2018-11-26T00:11:01.498Z,3.80
2018-11-26T00:13:30.036Z,3.90
2018-11-26T00:15:58.616Z,4.02
2018-11-26T00:18:27.259Z,4.11
2018-11-26T00:20:55.781Z,4.18
2018-11-26T00:23:24.307Z,4.36
2018-11-26T00:25:52.875Z,4.46
2018-11-26T00:28:21.524Z,4.53
2018-11-26T00:30:50.107Z,4.58
2018-11-26T00:33:18.686Z,4.64
2018-11-26T00:35:47.316Z,4.70
2018-11-26T00:38:15.844Z,4.77
2018-11-26T00:40:44.393Z,4.81
2018-11-26T01:07:04.621Z,5.09
2018-11-26T01:09:33.180Z,5.10
2018-11-26T01:12:01.780Z,5.09
2018-11-26T01:14:30.543Z,5.11
2018-11-26T01:16:59.140Z,5.16
2018-11-26T01:19:28.038Z,5.16
2018-11-26T01:21:56.609Z,5.09
2018-11-26T01:24:31.811Z,5.10
2018-11-26T01:27:00.401Z,5.05
2018-11-26T01:29:28.932Z,5.00
2018-11-26T01:31:57.485Z,4.98
2018-11-26T01:34:26.071Z,4.97
2018-11-26T01:36:54.615Z,4.92
2018-11-26T01:39:23.156Z,4.90
2018-11-26T01:41:51.732Z,4.89
2018-11-26T01:44:20.279Z,4.82
2018-11-26T01:46:48.801Z,4.87
2018-11-26T01:49:17.449Z,4.87
2018-11-26T01:51:45.966Z,4.84
2018-11-26T01:54:14.490Z,4.83
2018-11-26T01:56:43.082Z,4.81
2018-11-26T01:59:11.622Z,4.83
2018-11-26T02:01:40.135Z,4.82
2018-11-26T02:04:08.739Z,4.77
2018-11-26T02:06:37.287Z,4.79
2018-11-26T02:09:06.372Z,4.86
2018-11-26T02:11:34.931Z,4.85
2018-11-26T02:14:03.490Z,4.75
2018-11-26T02:16:32.052Z,4.77
2018-11-26T02:19:00.636Z,4.79
2018-11-26T02:21:29.195Z,4.73
2018-11-26T02:23:57.719Z,4.72
2018-11-26T02:26:26.290Z,4.73
2018-11-26T02:28:54.808Z,4.79
2018-11-26T02:31:23.346Z,4.84
2018-11-26T02:33:52.198Z,4.86
2018-11-26T02:36:20.749Z,4.88
2018-11-26T02:38:49.331Z,4.94
2018-11-26T02:41:17.922Z,4.92
2018-11-26T02:43:46.515Z,4.96
2018-11-26T02:46:15.050Z,4.98
2018-11-26T02:48:43.650Z,4.98
2018-11-26T02:51:12.238Z,5.02
2018-11-26T02:53:40.775Z,5.05
2018-11-26T02:56:09.343Z,5.05
2018-11-26T02:58:37.887Z,4.99
2018-11-26T03:01:06.989Z,4.98
2018-11-26T03:03:35.555Z,4.94
2018-11-26T03:06:04.098Z,4.92
2018-11-26T03:08:32.711Z,4.90
2018-11-26T03:11:01.327Z,4.90
2018-11-26T03:13:29.854Z,4.89
2018-11-26T03:15:58.381Z,4.90
2018-11-26T03:18:26.939Z,4.88
2018-11-26T03:20:55.511Z,4.94
2018-11-26T03:23:24.141Z,4.92
2018-11-26T03:25:52.729Z,4.91
2018-11-26T03:28:21.257Z,4.89
2018-11-26T03:30:49.779Z,4.86
2018-11-26T03:33:18.427Z,4.80
2018-11-26T03:35:46.949Z,4.67
2018-11-26T03:38:17.194Z,4.64
2018-11-26T03:40:45.902Z,4.61
2018-11-26T03:43:14.470Z,4.64
2018-11-26T03:45:43.011Z,4.67
2018-11-26T03:48:11.608Z,4.68
2018-11-26T03:50:40.143Z,4.66
2018-11-26T03:53:08.730Z,4.62
2018-11-26T03:55:37.314Z,4.65
2018-11-26T03:58:05.870Z,4.68
2018-11-26T04:00:34.390Z,4.65
2018-11-26T04:03:02.943Z,4.63
2018-11-26T04:05:31.485Z,4.68
2018-11-26T04:08:00.013Z,4.72
2018-11-26T04:10:28.574Z,4.75
2018-11-26T04:12:57.156Z,4.77
2018-11-26T04:15:25.732Z,4.79
2018-11-26T04:17:54.306Z,4.82
2018-11-26T04:20:22.829Z,4.84
2018-11-26T04:22:51.352Z,4.88
2018-11-26T04:25:19.915Z,4.87
2018-11-26T04:27:48.473Z,4.90
2018-11-26T04:30:17.025Z,4.85
2018-11-26T04:32:45.654Z,4.87
2018-11-26T04:35:14.183Z,4.91
2018-11-26T04:37:42.726Z,4.94
2018-11-26T04:40:11.329Z,4.95
2018-11-26T04:42:39.846Z,4.95
2018-11-26T04:45:09.560Z,4.97
2018-11-26T04:47:38.423Z,5.00
2018-11-26T04:50:09.200Z,4.98
2018-11-26T04:52:37.767Z,4.99
2018-11-26T04:55:06.735Z,5.05
2018-11-26T04:57:35.619Z,5.05
2018-11-26T05:00:04.646Z,5.09
2018-11-26T05:02:33.222Z,5.08
2018-11-26T05:05:01.810Z,5.07
2018-11-26T05:07:30.337Z,5.08
2018-11-26T05:09:58.935Z,5.12
2018-11-26T05:12:27.497Z,5.13
2018-11-26T05:14:56.061Z,5.19
2018-11-26T05:17:24.713Z,5.21
2018-11-26T05:19:53.287Z,5.22
2018-11-26T05:22:21.814Z,5.23
2018-11-26T05:24:50.377Z,5.29
2018-11-26T05:27:18.934Z,5.33
2018-11-26T05:29:47.594Z,5.35
2018-11-26T05:32:16.163Z,5.36
2018-11-26T05:34:44.683Z,5.37
2018-11-26T05:37:13.239Z,5.40
2018-11-26T05:39:41.812Z,5.42
2018-11-26T05:42:10.399Z,5.39
2018-11-26T05:44:39.014Z,5.41
2018-11-26T05:47:07.622Z,5.39
2018-11-26T05:49:36.165Z,5.41
2018-11-26T05:52:04.694Z,5.40
2018-11-26T05:54:33.275Z,5.36
2018-11-26T05:57:01.861Z,5.35
2018-11-26T05:59:30.393Z,5.37
2018-11-26T06:01:58.992Z,5.35
2018-11-26T06:04:27.591Z,5.35
2018-11-26T06:06:56.115Z,5.33
2018-11-26T06:09:24.726Z,5.33
2018-11-26T06:11:53.246Z,5.33
2018-11-26T06:14:21.803Z,5.33
2018-11-26T06:16:53.805Z,5.31
2018-11-26T06:19:18.962Z,5.31
2018-11-26T06:21:47.833Z,5.32
2018-11-26T06:24:16.397Z,5.31
2018-11-26T06:26:44.927Z,5.33
2018-11-26T06:29:13.446Z,5.32
2018-11-26T06:31:42.052Z,5.36
2018-11-26T06:34:10.570Z,5.36
2018-11-26T06:36:39.343Z,5.33
2018-11-26T06:39:09.581Z,5.35
2018-11-26T06:41:38.375Z,5.36
2018-11-26T06:44:07.614Z,5.33
2018-11-26T06:46:36.162Z,5.32
2018-11-26T06:49:04.706Z,5.27
2018-11-26T06:51:33.254Z,5.22
2018-11-26T06:54:01.851Z,5.24
2018-11-26T06:56:30.388Z,5.26
2018-11-26T06:58:59.030Z,5.18
2018-11-26T07:01:27.601Z,5.16
2018-11-26T07:03:56.138Z,5.16
2018-11-26T07:06:24.663Z,5.11
2018-11-26T07:08:53.596Z,5.12
2018-11-26T07:11:22.131Z,5.11
2018-11-26T07:13:50.698Z,5.17
2018-11-26T07:16:19.322Z,5.19
2018-11-26T07:18:47.846Z,5.18
2018-11-26T07:21:16.446Z,5.19
2018-11-26T07:23:45.013Z,5.25
2018-11-26T07:26:13.622Z,5.30
2018-11-26T07:28:42.139Z,5.29
2018-11-26T07:31:10.707Z,5.25
2018-11-26T07:33:39.228Z,5.18
2018-11-26T07:36:11.443Z,5.18
2018-11-26T07:38:36.769Z,5.19
2018-11-26T07:41:05.564Z,5.18
2018-11-26T07:43:34.134Z,5.16
2018-11-26T07:46:02.782Z,5.13
2018-11-26T07:48:31.303Z,5.07
2018-11-26T07:50:59.850Z,5.02
2018-11-26T07:53:28.434Z,4.99
2018-11-26T07:55:57.010Z,4.98
2018-11-26T07:58:25.562Z,4.99
2018-11-26T08:00:54.255Z,4.99
2018-11-26T08:03:22.838Z,4.99
2018-11-26T08:05:51.360Z,4.98
2018-11-26T08:08:19.940Z,4.93
2018-11-26T08:10:48.466Z,4.83
2018-11-26T08:13:17.031Z,4.79
2018-11-26T08:15:45.647Z,4.78
2018-11-26T08:18:14.210Z,4.77
2018-11-26T08:20:42.738Z,4.80
2018-11-26T08:23:11.286Z,4.81
2018-11-26T08:25:39.862Z,4.80
2018-11-26T08:28:08.483Z,4.78
2018-11-26T08:30:37.021Z,4.72
2018-11-26T08:33:06.367Z,4.68
2018-11-26T08:35:35.002Z,4.68
2018-11-26T08:38:13.659Z,4.64
2018-11-26T08:40:43.228Z,4.59
2018-11-26T08:43:17.065Z,4.57
2018-11-26T08:45:53.538Z,4.55
2018-11-26T08:48:31.273Z,4.59
2018-11-26T08:51:01.246Z,4.61
2018-11-26T08:53:29.916Z,4.67
2018-11-26T08:55:58.692Z,4.75
2018-11-26T08:58:27.281Z,4.88
2018-11-26T09:01:01.471Z,5.06
2018-11-26T09:03:36.038Z,5.17
2018-11-26T09:06:05.478Z,5.31
2018-11-26T09:08:35.288Z,5.40
2018-11-26T09:11:04.808Z,5.47
2018-11-26T09:13:33.329Z,5.53
2018-11-26T09:16:01.863Z,5.56
2018-11-26T09:18:30.435Z,5.55
2018-11-26T09:20:59.013Z,5.59
2018-11-26T09:23:27.574Z,5.52
2018-11-26T09:25:56.230Z,5.50
2018-11-26T09:28:24.925Z,5.50
2018-11-26T09:30:53.507Z,5.39
2018-11-26T09:33:22.234Z,5.29
2018-11-26T09:35:50.762Z,5.19
2018-11-26T09:38:19.340Z,5.13
2018-11-26T09:40:47.922Z,5.09
2018-11-26T09:43:16.442Z,5.09
2018-11-26T09:45:44.992Z,5.08
2018-11-26T09:48:13.532Z,5.07
2018-11-26T09:50:42.399Z,5.11
2018-11-26T09:53:10.940Z,5.10
2018-11-26T09:55:39.458Z,5.11
2018-11-26T09:58:08.003Z,5.14
2018-11-26T10:00:36.526Z,5.21
2018-11-26T10:03:05.480Z,5.25
2018-11-26T10:05:34.583Z,5.19
2018-11-26T10:08:03.102Z,5.16
2018-11-26T10:10:31.667Z,5.17
2018-11-26T10:13:00.194Z,5.22
2018-11-26T10:15:28.803Z,5.35
2018-11-26T10:17:57.318Z,5.51
2018-11-26T10:20:25.844Z,5.59
2018-11-26T10:22:54.692Z,5.68
2018-11-26T10:25:23.777Z,5.71
2018-11-26T10:27:52.309Z,5.68
2018-11-26T10:30:23.372Z,5.58
2018-11-26T10:32:52.165Z,5.33
2018-11-26T10:35:21.170Z,5.19
2018-11-26T10:37:49.845Z,5.04
2018-11-26T10:40:25.531Z,4.97
2018-11-26T10:42:54.130Z,4.95
2018-11-26T10:45:23.592Z,4.96
2018-11-26T10:47:52.148Z,4.97
2018-11-26T10:50:23.182Z,4.96
2018-11-26T10:52:55.054Z,4.91
2018-11-26T10:55:26.350Z,4.86
2018-11-26T10:57:54.829Z,4.86
2018-11-26T11:00:28.766Z,4.86
2018-11-26T11:02:57.770Z,4.83
2018-11-26T11:05:26.301Z,4.81
2018-11-26T11:07:55.017Z,4.80
2018-11-26T11:10:25.418Z,4.82
2018-11-26T11:12:53.962Z,4.82
2018-11-26T11:15:22.874Z,4.79
2018-11-26T11:17:51.377Z,4.79
2018-11-26T11:20:21.060Z,4.78
2018-11-26T11:22:49.595Z,4.72
2018-11-26T11:25:18.764Z,4.68
2018-11-26T11:27:47.840Z,4.65
2018-11-26T11:30:21.739Z,4.63
2018-11-26T11:32:50.303Z,4.62
2018-11-26T11:35:19.036Z,4.67
2018-11-26T11:37:48.860Z,4.69
2018-11-26T11:40:21.016Z,4.62
2018-11-26T11:42:49.571Z,4.55
2018-11-26T11:45:18.343Z,4.53
2018-11-26T11:47:46.894Z,4.58
2018-11-26T11:50:16.862Z,4.61
2018-11-26T11:52:45.611Z,4.58
2018-11-26T11:55:17.047Z,4.52
2018-11-26T11:57:45.582Z,4.48
2018-11-26T12:00:18.852Z,4.46
2018-11-26T12:02:47.375Z,4.45
2018-11-26T12:05:16.333Z,4.46
2018-11-26T12:07:45.007Z,4.50
2018-11-26T12:10:13.937Z,4.52
2018-11-26T12:12:42.471Z,4.54
2018-11-26T12:15:12.423Z,4.58
2018-11-26T12:17:41.186Z,4.62
2018-11-26T12:20:11.127Z,4.66
2018-11-26T12:22:39.760Z,4.66
2018-11-26T12:25:10.192Z,4.64
2018-11-26T12:27:38.718Z,4.68
2018-11-26T12:30:11.515Z,4.64
2018-11-26T12:32:40.050Z,4.53
2018-11-26T12:35:08.599Z,4.47
2018-11-26T12:37:37.139Z,4.42
2018-11-26T12:40:08.416Z,4.38
2018-11-26T12:42:37.052Z,4.38
2018-11-26T12:45:15.183Z,4.41
2018-11-26T12:47:43.762Z,4.45
2018-11-26T12:50:12.574Z,4.47
2018-11-26T12:52:41.146Z,4.46
2018-11-26T12:55:12.062Z,4.44
2018-11-26T12:57:41.642Z,4.43
2018-11-26T13:00:13.533Z,4.38
2018-11-26T13:02:42.086Z,4.30
2018-11-26T13:05:15.103Z,4.30
2018-11-26T13:07:43.673Z,4.33
2018-11-26T13:10:14.127Z,4.31
2018-11-26T13:12:42.767Z,4.30
2018-11-26T13:15:15.432Z,4.22
2018-11-26T13:17:44.016Z,4.19
2018-11-26T13:20:14.812Z,4.10
2018-11-26T13:22:43.459Z,4.04
2018-11-26T13:25:13.242Z,4.00
2018-11-26T13:27:43.535Z,3.97
2018-11-26T13:30:14.504Z,3.93
2018-11-26T13:32:43.868Z,3.93
2018-11-26T13:35:13.497Z,3.92
2018-11-26T13:37:42.059Z,3.92
2018-11-26T13:40:11.907Z,3.85
2018-11-26T13:42:40.551Z,3.78
2018-11-26T13:45:10.863Z,3.70
2018-11-26T13:47:39.523Z,3.71
2018-11-26T13:50:11.795Z,3.68
2018-11-26T13:52:40.311Z,3.65
2018-11-26T13:55:10.804Z,3.67
2018-11-26T13:57:39.376Z,3.71
2018-11-26T14:00:11.328Z,3.75
2018-11-26T14:02:39.874Z,3.70
2018-11-26T14:05:10.803Z,3.68
2018-11-26T14:07:39.348Z,3.69
2018-11-26T14:10:11.275Z,3.64
2018-11-26T14:12:40.111Z,3.59
2018-11-26T14:15:10.520Z,3.54
2018-11-26T14:17:39.091Z,3.56
2018-11-26T14:20:11.238Z,3.55
2018-11-26T14:22:39.800Z,3.50
2018-11-26T14:25:11.924Z,3.44
2018-11-26T14:27:41.054Z,3.38
2018-11-26T14:30:16.698Z,3.35
2018-11-26T14:32:45.254Z,3.30
2018-11-26T14:35:13.771Z,3.26
2018-11-26T14:37:42.368Z,3.29
2018-11-26T14:40:13.443Z,3.35
2018-11-26T14:42:41.998Z,3.37
2018-11-26T14:45:12.346Z,3.44
2018-11-26T14:47:40.907Z,3.44
2018-11-26T14:50:12.408Z,3.41
2018-11-26T14:52:41.340Z,3.32
2018-11-26T14:55:14.994Z,3.28
2018-11-26T14:57:44.112Z,3.23
2018-11-26T15:00:16.529Z,3.18
2018-11-26T15:02:45.238Z,3.19
2018-11-26T15:05:14.019Z,3.14
2018-11-26T15:07:42.535Z,3.07
2018-11-26T15:10:13.275Z,3.01
2018-11-26T15:12:41.886Z,2.95
2018-11-26T15:15:12.809Z,2.91
2018-11-26T15:17:42.252Z,2.91
2018-11-26T15:20:20.257Z,2.94
2018-11-26T15:22:49.166Z,2.88
2018-11-26T15:25:20.669Z,2.85
2018-11-26T15:27:49.284Z,2.79
2018-11-26T15:30:19.367Z,2.74
2018-11-26T15:32:48.029Z,2.74
2018-11-26T15:35:19.809Z,2.69
2018-11-26T15:37:48.414Z,2.67
2018-11-26T15:40:18.108Z,2.62
2018-11-26T15:42:46.650Z,2.52
2018-11-26T15:45:19.157Z,2.47
2018-11-26T15:47:48.232Z,2.45
2018-11-26T15:50:16.766Z,2.41
2018-11-26T15:52:45.319Z,2.44
2018-11-26T15:55:14.987Z,2.43
2018-11-26T15:57:43.528Z,2.39
2018-11-26T16:00:16.133Z,2.35
2018-11-26T16:02:45.047Z,2.35
2018-11-26T16:05:19.135Z,2.35
2018-11-26T16:07:48.300Z,2.30
2018-11-26T16:10:16.931Z,2.23
2018-11-26T16:12:46.741Z,2.17
2018-11-26T16:15:18.012Z,2.13
2018-11-26T16:17:46.552Z,2.12
2018-11-26T16:20:17.441Z,2.14
2018-11-26T16:22:45.968Z,2.18
2018-11-26T16:25:15.980Z,2.20
2018-11-26T16:27:44.618Z,2.20
2018-11-26T16:30:14.267Z,2.20
2018-11-26T16:32:44.117Z,2.17
2018-11-26T16:35:14.263Z,2.15
2018-11-26T16:37:42.790Z,2.13
2018-11-26T16:40:14.890Z,2.08
2018-11-26T16:42:43.439Z,2.08
2018-11-26T16:45:13.511Z,2.14
2018-11-26T16:47:42.093Z,2.16
2018-11-26T16:50:12.374Z,2.11
2018-11-26T16:52:40.959Z,2.03
2018-11-26T16:55:12.617Z,2.00
2018-11-26T16:57:41.410Z,1.99
2018-11-26T17:00:20.056Z,1.95
2018-11-26T17:02:49.664Z,1.86
2018-11-26T17:05:22.638Z,1.78
2018-11-26T17:07:51.257Z,1.74
2018-11-26T17:10:20.010Z,1.79
2018-11-26T17:12:48.514Z,1.81
2018-11-26T17:15:17.886Z,1.83
2018-11-26T17:17:46.672Z,1.83
2018-11-26T17:20:16.175Z,1.83
2018-11-26T17:22:44.811Z,1.86
2018-11-26T17:25:14.591Z,1.85
2018-11-26T17:27:43.731Z,1.86
2018-11-26T17:30:22.526Z,1.83
2018-11-26T17:32:56.114Z,1.82
2018-11-26T17:35:24.748Z,1.81
2018-11-26T17:37:53.266Z,1.85
2018-11-26T17:40:23.784Z,1.84
2018-11-26T17:42:52.753Z,1.80
2018-11-26T17:45:22.339Z,1.82
2018-11-26T17:47:52.201Z,1.81
2018-11-26T17:50:39.065Z,1.82
2018-11-26T17:53:09.902Z,1.85
2018-11-26T17:55:56.654Z,1.87
2018-11-26T17:58:26.627Z,1.85
2018-11-26T18:01:04.545Z,1.86
2018-11-26T18:03:33.131Z,1.91
2018-11-26T18:06:01.669Z,1.91
2018-11-26T18:08:30.259Z,1.87
2018-11-26T18:10:58.918Z,1.84
2018-11-26T18:13:27.447Z,1.78
2018-11-26T18:15:55.975Z,1.76
2018-11-26T18:18:24.518Z,1.70
2018-11-26T18:20:53.047Z,1.64
2018-11-26T18:23:21.641Z,1.62
2018-11-26T18:25:50.172Z,1.60
2018-11-26T18:28:18.784Z,1.57
2018-11-26T18:30:49.611Z,1.55
2018-11-26T18:33:18.201Z,1.55
2018-11-26T18:35:48.540Z,1.51
2018-11-26T18:38:17.502Z,1.55
2018-11-26T18:40:47.680Z,1.56
2018-11-26T18:43:16.542Z,1.61
2018-11-26T18:45:45.295Z,1.66
2018-11-26T18:48:14.912Z,1.75
2018-11-26T18:50:43.819Z,1.77
2018-11-26T18:53:12.733Z,1.76
2018-11-26T18:55:42.300Z,1.77
2018-11-26T18:58:10.868Z,1.77
2018-11-26T19:00:44.726Z,1.75
2018-11-26T19:03:17.739Z,1.76
2018-11-26T19:05:46.831Z,1.74
2018-11-26T19:08:15.641Z,1.75
2018-11-26T19:10:44.552Z,1.75
2018-11-26T19:13:15.868Z,1.72
2018-11-26T19:15:46.187Z,1.69
2018-11-26T19:18:21.655Z,1.61
2018-11-26T19:20:50.244Z,1.49
2018-11-26T19:23:18.804Z,1.45
2018-11-26T19:25:48.451Z,1.45
2018-11-26T19:28:20.504Z,1.40
2018-11-26T19:30:45.572Z,1.38
2018-11-26T19:33:14.143Z,1.36
2018-11-26T19:35:42.692Z,1.30
2018-11-26T19:38:11.245Z,1.26
2018-11-26T19:40:40.682Z,1.24
2018-11-26T19:43:09.954Z,1.20
2018-11-26T19:45:39.060Z,1.15
2018-11-26T19:48:08.588Z,1.16
2018-11-26T19:50:37.216Z,1.17
2018-11-26T19:53:08.212Z,1.21
2018-11-26T19:55:36.862Z,1.25
2018-11-26T19:58:06.561Z,1.24
2018-11-26T20:00:36.744Z,1.26
2018-11-26T20:03:18.915Z,1.24
2018-11-26T20:05:56.749Z,1.24
2018-11-26T20:08:25.478Z,1.14
2018-11-26T20:10:54.133Z,1.05
2018-11-26T20:13:22.789Z,1.00
2018-11-26T20:15:52.839Z,0.98
2018-11-26T20:18:20.294Z,1.02
2018-11-26T20:20:48.860Z,1.02
2018-11-26T20:23:17.467Z,1.01
2018-11-26T20:25:46.282Z,0.94
2018-11-26T20:28:14.711Z,0.91
2018-11-26T20:30:43.302Z,0.88
2018-11-26T20:33:11.814Z,0.89
2018-11-26T20:35:40.361Z,0.87
2018-11-26T20:38:10.444Z,0.87
2018-11-26T20:40:39.027Z,0.83
2018-11-26T20:43:09.575Z,0.77
2018-11-26T20:45:39.383Z,0.74
2018-11-26T20:48:08.700Z,0.65
2018-11-26T20:50:37.379Z,0.60
2018-11-26T20:53:06.064Z,0.56
2018-11-26T20:55:34.631Z,0.49
2018-11-26T20:58:09.544Z,0.44
2018-11-26T21:00:38.155Z,0.42
2018-11-26T21:03:09.320Z,0.42
2018-11-26T21:05:38.275Z,0.42
2018-11-26T21:08:06.855Z,0.43
2018-11-26T21:10:35.439Z,0.39
2018-11-26T21:13:04.040Z,0.43
2018-11-26T21:15:32.738Z,0.44
2018-11-26T21:18:03.559Z,0.44
2018-11-26T21:20:36.923Z,0.41
2018-11-26T21:23:08.283Z,0.30
2018-11-26T21:25:36.812Z,0.19
2018-11-26T21:28:06.152Z,0.08
2018-11-26T21:30:34.727Z,-0.02
2018-11-26T21:33:03.317Z,-0.03
2018-11-26T21:35:31.949Z,-0.02
2018-11-26T21:38:00.506Z,-0.04
2018-11-26T21:40:29.025Z,0.01
2018-11-26T21:42:57.608Z,-0.03
2018-11-26T21:45:28.143Z,-0.06
2018-11-26T21:47:56.700Z,-0.04
2018-11-26T21:50:25.270Z,-0.06
2018-11-26T21:52:53.803Z,-0.05
2018-11-26T21:58:03.884Z,0.06
2018-11-26T22:00:32.962Z,0.06
2018-11-26T22:03:07.420Z,0.07
2018-11-26T22:05:36.691Z,0.11
2018-11-26T22:08:05.468Z,0.17
2018-11-26T22:10:34.032Z,0.21
2018-11-26T22:13:02.559Z,0.19
2018-11-26T22:15:31.083Z,0.21
2018-11-26T22:17:59.771Z,0.19
2018-11-26T22:20:29.608Z,0.16
2018-11-26T22:22:58.189Z,0.12
2018-11-26T22:25:26.755Z,0.05
2018-11-26T22:27:55.679Z,0.04
2018-11-26T22:30:32.642Z,-0.02
2018-11-26T22:33:01.195Z,-0.03
2018-11-26T22:35:29.760Z,-0.06
2018-11-26T22:37:58.400Z,-0.14
2018-11-26T22:40:27.305Z,-0.14
2018-11-26T22:42:55.901Z,-0.18
2018-11-26T22:45:28.331Z,-0.18
2018-11-26T22:48:01.335Z,-0.14
2018-11-26T22:50:29.883Z,-0.10
2018-11-26T22:52:58.392Z,-0.11
2018-11-26T22:55:26.908Z,-0.10
2018-11-26T22:57:55.475Z,-0.09
2018-11-26T23:00:27.386Z,-0.03
2018-11-26T23:02:58.925Z,-0.02
2018-11-26T23:05:27.620Z,-0.05
2018-11-26T23:07:56.153Z,-0.09
2018-11-26T23:10:24.738Z,-0.08
2018-11-26T23:12:53.271Z,-0.16
2018-11-26T23:15:22.053Z,-0.20
2018-11-26T23:17:51.297Z,-0.22
2018-11-26T23:20:21.401Z,-0.27
2018-11-26T23:22:49.936Z,-0.23
2018-11-26T23:25:19.863Z,-0.19
2018-11-26T23:27:48.410Z,-0.16
2018-11-26T23:30:20.951Z,-0.13
2018-11-26T23:32:50.779Z,-0.08
2018-11-26T23:35:19.383Z,-0.12
2018-11-26T23:37:48.042Z,-0.12
2018-11-26T23:40:16.669Z,-0.08
2018-11-26T23:42:45.270Z,-0.04
2018-11-26T23:45:17.928Z,-0.02
2018-11-26T23:47:46.823Z,0.02
2018-11-26T23:50:16.150Z,0.06
2018-11-26T23:52:45.178Z,0.08
2018-11-26T23:55:15.725Z,0.06
2018-11-26T23:57:44.335Z,0.13
